createdAt,value
2019-03-30T00:00:53.248Z,100332.88
2019-03-30T00:03:21.319Z,100327.96
2019-03-30T00:05:48.785Z,100329.30
2019-03-30T00:08:16.240Z,100332.89
2019-03-30T00:10:43.863Z,100331.61
2019-03-30T00:13:11.279Z,100328.81
2019-03-30T00:15:38.863Z,100333.59
2019-03-30T00:18:06.314Z,100325.17
2019-03-30T00:20:33.905Z,100322.09
2019-03-30T00:23:01.364Z,100327.55
2019-03-30T00:25:28.807Z,100325.13
2019-03-30T00:27:56.250Z,100319.89
2019-03-30T00:30:23.732Z,100322.44
2019-03-30T00:32:51.170Z,100326.74
2019-03-30T00:35:18.633Z,100321.56
2019-03-30T00:37:46.098Z,100318.88
2019-03-30T00:40:13.531Z,100322.75
2019-03-30T00:42:40.999Z,100319.73
2019-03-30T00:45:08.419Z,100315.52
2019-03-30T00:47:35.957Z,100313.71
2019-03-30T00:50:03.445Z,100306.22
2019-03-30T00:52:30.885Z,100309.85
2019-03-30T00:54:58.344Z,100313.18
2019-03-30T00:57:26.557Z,100299.56
2019-03-30T00:59:54.749Z,100301.86
2019-03-30T01:02:22.213Z,100297.52
2019-03-30T01:04:49.684Z,100295.59
2019-03-30T01:07:17.142Z,100288.00
2019-03-30T01:09:44.581Z,100293.03
2019-03-30T01:12:12.050Z,100289.83
2019-03-30T01:14:39.487Z,100284.66
2019-03-30T01:17:06.935Z,100279.80
2019-03-30T01:19:34.392Z,100280.77
2019-03-30T01:22:01.832Z,100275.74
2019-03-30T01:24:29.270Z,100271.17
2019-03-30T01:26:56.750Z,100267.61
2019-03-30T01:29:24.196Z,100271.64
2019-03-30T01:31:51.639Z,100267.80
2019-03-30T01:34:19.101Z,100266.30
2019-03-30T01:36:46.559Z,100263.47
2019-03-30T01:39:14.005Z,100263.50
2019-03-30T01:41:41.446Z,100262.00
2019-03-30T01:44:09.351Z,100261.05
2019-03-30T01:46:37.021Z,100255.91
2019-03-30T01:49:05.139Z,100260.55
2019-03-30T01:51:32.594Z,100258.69
2019-03-30T01:54:00.046Z,100254.06
2019-03-30T01:56:27.509Z,100245.95
2019-03-30T01:58:54.962Z,100250.42
2019-03-30T02:01:22.407Z,100248.09
2019-03-30T02:03:49.909Z,100245.55
2019-03-30T02:06:17.388Z,100245.91
2019-03-30T02:08:44.835Z,100240.78
2019-03-30T02:11:12.274Z,100234.83
2019-03-30T02:13:39.730Z,100226.13
2019-03-30T02:16:07.507Z,100227.20
2019-03-30T02:18:34.965Z,100224.81
2019-03-30T02:21:02.471Z,100226.04
2019-03-30T02:23:29.870Z,100229.67
2019-03-30T02:25:57.427Z,100225.30
2019-03-30T02:28:24.870Z,100224.70
2019-03-30T02:30:52.326Z,100225.92
2019-03-30T02:33:19.831Z,100224.10
2019-03-30T02:35:47.278Z,100232.57
2019-03-30T02:38:14.721Z,100227.69
2019-03-30T02:40:42.206Z,100220.97
2019-03-30T02:43:09.664Z,100220.95
2019-03-30T02:45:38.079Z,100220.45
2019-03-30T02:48:05.542Z,100224.13
2019-03-30T02:50:48.549Z,100220.06
2019-03-30T02:53:00.490Z,100215.12
2019-03-30T02:55:27.927Z,100214.00
2019-03-30T02:57:55.412Z,100211.96
2019-03-30T03:00:22.835Z,100208.14
2019-03-30T03:02:50.282Z,100213.27
2019-03-30T03:05:17.703Z,100206.63
2019-03-30T03:07:46.032Z,100206.52
2019-03-30T03:10:13.682Z,100209.03
2019-03-30T03:12:41.127Z,100202.44
2019-03-30T03:15:08.792Z,100205.23
2019-03-30T03:17:36.285Z,100200.94
2019-03-30T03:20:03.726Z,100199.92
2019-03-30T03:22:31.216Z,100193.63
2019-03-30T03:24:58.649Z,100192.92
2019-03-30T03:27:26.109Z,100189.63
2019-03-30T03:29:53.591Z,100193.17
2019-03-30T03:32:21.041Z,100190.75
2019-03-30T03:34:48.523Z,100184.75
2019-03-30T03:37:15.953Z,100182.34
2019-03-30T03:39:43.387Z,100185.84
2019-03-30T03:42:10.850Z,100182.84
2019-03-30T03:44:38.361Z,100188.63
2019-03-30T03:47:05.804Z,100190.34
2019-03-30T03:49:33.277Z,100181.24
2019-03-30T03:52:00.712Z,100183.52
2019-03-30T03:54:28.182Z,100179.89
2019-03-30T03:56:55.633Z,100175.66
2019-03-30T03:59:23.127Z,100179.66
2019-03-30T04:01:50.618Z,100174.38
2019-03-30T04:04:18.053Z,100173.76
2019-03-30T04:06:45.487Z,100172.19
2019-03-30T04:09:13.189Z,100163.48
2019-03-30T04:11:40.648Z,100163.02
2019-03-30T04:14:08.100Z,100165.91
2019-03-30T04:16:35.551Z,100164.52
2019-03-30T04:19:03.014Z,100160.22
2019-03-30T04:21:43.782Z,100159.28
2019-03-30T04:23:57.948Z,100158.62
2019-03-30T04:26:25.389Z,100155.30
2019-03-30T04:28:52.858Z,100158.90
2019-03-30T04:31:20.325Z,100154.19
2019-03-30T04:33:47.798Z,100146.61
2019-03-30T04:36:15.218Z,100155.66
2019-03-30T04:38:43.232Z,100152.81
2019-03-30T04:41:10.698Z,100140.12
2019-03-30T04:43:38.139Z,100149.00
2019-03-30T04:46:05.590Z,100141.67
2019-03-30T04:48:33.056Z,100143.97
2019-03-30T04:51:00.516Z,100132.92
2019-03-30T04:53:27.962Z,100135.47
2019-03-30T04:55:55.420Z,100140.89
2019-03-30T04:58:22.876Z,100133.62
2019-03-30T05:00:50.335Z,100135.06
2019-03-30T05:03:17.779Z,100127.70
2019-03-30T05:05:45.230Z,100128.86
2019-03-30T05:08:13.250Z,100130.16
2019-03-30T05:10:40.701Z,100133.39
2019-03-30T05:13:08.159Z,100128.59
2019-03-30T05:15:35.582Z,100123.34
2019-03-30T05:18:03.037Z,100122.77
2019-03-30T05:20:30.486Z,100126.80
2019-03-30T05:22:57.957Z,100125.31
2019-03-30T05:25:26.219Z,100125.64
2019-03-30T05:27:53.771Z,100126.97
2019-03-30T05:30:21.217Z,100125.84
2019-03-30T05:32:48.673Z,100127.48
2019-03-30T05:35:16.169Z,100126.17
2019-03-30T05:37:43.650Z,100130.56
2019-03-30T05:40:11.103Z,100121.62
2019-03-30T05:42:38.571Z,100124.08
2019-03-30T05:45:06.022Z,100119.15
2019-03-30T05:47:33.474Z,100122.88
2019-03-30T05:50:00.927Z,100123.20
2019-03-30T05:52:28.378Z,100123.17
2019-03-30T05:54:55.815Z,100117.05
2019-03-30T05:57:23.293Z,100110.54
2019-03-30T05:59:50.720Z,100120.45
2019-03-30T06:02:18.200Z,100114.00
2019-03-30T06:04:45.658Z,100110.80
2019-03-30T06:07:13.247Z,100108.98
2019-03-30T06:09:40.666Z,100110.11
2019-03-30T06:12:08.146Z,100106.84
2019-03-30T06:14:35.581Z,100114.23
2019-03-30T06:17:03.058Z,100107.02
2019-03-30T06:19:30.495Z,100105.19
2019-03-30T06:21:57.919Z,100106.38
2019-03-30T06:24:25.415Z,100102.51
2019-03-30T06:26:52.860Z,100106.39
2019-03-30T06:29:20.321Z,100100.71
2019-03-30T06:31:47.766Z,100104.05
2019-03-30T06:34:15.231Z,100100.47
2019-03-30T06:36:43.318Z,100098.04
2019-03-30T06:39:10.787Z,100093.85
2019-03-30T06:41:38.226Z,100098.24
2019-03-30T06:44:05.672Z,100093.34
2019-03-30T06:46:33.156Z,100096.30
2019-03-30T06:49:00.609Z,100097.09
2019-03-30T06:51:28.085Z,100098.36
2019-03-30T06:53:55.506Z,100096.41
2019-03-30T06:56:22.960Z,100095.19
2019-03-30T06:58:50.410Z,100087.83
2019-03-30T07:01:18.780Z,100082.75
2019-03-30T07:03:46.253Z,100081.71
2019-03-30T07:06:13.730Z,100085.36
2019-03-30T07:08:41.287Z,100086.09
2019-03-30T07:11:20.610Z,100080.64
2019-03-30T07:13:36.241Z,100087.67
2019-03-30T07:16:03.772Z,100089.92
2019-03-30T07:18:31.508Z,100088.66
2019-03-30T07:20:58.942Z,100090.03
2019-03-30T07:23:27.170Z,100087.55
2019-03-30T07:25:54.627Z,100094.97
2019-03-30T07:28:22.122Z,100095.30
2019-03-30T07:30:49.574Z,100096.55
2019-03-30T07:33:17.000Z,100098.61
2019-03-30T07:35:44.446Z,100098.00
2019-03-30T07:38:11.894Z,100093.12
2019-03-30T07:40:39.500Z,100095.62
2019-03-30T07:43:06.942Z,100094.31
2019-03-30T07:45:34.356Z,100097.06
2019-03-30T07:48:01.833Z,100104.80
2019-03-30T07:50:29.313Z,100098.67
2019-03-30T07:52:56.776Z,100096.70
2019-03-30T07:55:24.254Z,100103.99
2019-03-30T07:57:51.718Z,100102.66
2019-03-30T08:00:19.182Z,100096.00
2019-03-30T08:02:46.631Z,100095.52
2019-03-30T08:05:14.774Z,100092.33
2019-03-30T08:07:42.944Z,100093.37
2019-03-30T08:10:11.424Z,100093.63
2019-03-30T08:12:39.739Z,100096.89
2019-03-30T08:15:07.924Z,100099.75
2019-03-30T08:17:35.457Z,100097.77
2019-03-30T08:20:02.923Z,100098.98
2019-03-30T08:22:30.374Z,100095.97
2019-03-30T08:24:57.812Z,100094.92
2019-03-30T08:27:25.273Z,100095.41
2019-03-30T08:29:52.691Z,100101.00
2019-03-30T08:32:20.149Z,100098.72
2019-03-30T08:34:47.611Z,100092.86
2019-03-30T08:37:16.938Z,100098.83
2019-03-30T08:39:44.395Z,100096.78
2019-03-30T08:42:11.883Z,100097.30
2019-03-30T08:44:39.362Z,100098.28
2019-03-30T08:47:06.850Z,100095.18
2019-03-30T08:49:34.346Z,100095.09
2019-03-30T08:52:01.814Z,100084.99
2019-03-30T08:54:29.615Z,100086.10
2019-03-30T08:56:57.128Z,100086.05
2019-03-30T08:59:25.086Z,100084.35
2019-03-30T09:01:52.566Z,100083.09
2019-03-30T09:04:20.079Z,100076.07
2019-03-30T09:06:47.558Z,100073.27
2019-03-30T09:09:15.035Z,100074.16
2019-03-30T09:11:43.582Z,100067.90
2019-03-30T09:14:10.012Z,100064.80
2019-03-30T09:16:37.510Z,100068.17
2019-03-30T09:19:04.974Z,100068.73
2019-03-30T09:21:32.492Z,100064.94
2019-03-30T09:24:09.422Z,100063.45
2019-03-30T09:26:27.494Z,100064.08
2019-03-30T09:28:55.007Z,100054.90
2019-03-30T09:31:22.473Z,100053.06
2019-03-30T09:33:49.949Z,100050.56
2019-03-30T09:36:17.514Z,100058.05
2019-03-30T09:38:45.100Z,100066.12
2019-03-30T09:41:12.516Z,100052.23
2019-03-30T09:43:40.011Z,100044.27
2019-03-30T09:46:07.560Z,100046.83
2019-03-30T09:48:35.050Z,100045.38
2019-03-30T09:51:02.499Z,100046.47
2019-03-30T11:22:42.191Z,100012.78
2019-03-30T11:25:09.632Z,100004.94
2019-03-30T11:27:37.091Z,100003.40
2019-03-30T11:30:05.308Z,100009.55
2019-03-30T11:32:32.783Z,99995.38
2019-03-30T11:35:00.341Z,100005.98
2019-03-30T11:37:27.792Z,100008.73
2019-03-30T11:39:55.285Z,99999.31
2019-03-30T11:42:22.723Z,100000.53
2019-03-30T11:44:50.180Z,100004.14
2019-03-30T11:47:17.659Z,99996.80
2019-03-30T11:49:45.097Z,99991.84
2019-03-30T11:52:12.560Z,99993.29
2019-03-30T11:54:39.977Z,99980.18
2019-03-30T11:57:07.428Z,99986.92
2019-03-30T11:59:35.683Z,99981.38
2019-03-30T12:02:03.139Z,99970.39
2019-03-30T12:04:30.582Z,99976.20
2019-03-30T12:06:58.041Z,99972.91
2019-03-30T12:09:25.489Z,99974.00
2019-03-30T12:11:54.002Z,99967.33
2019-03-30T12:14:21.453Z,99972.41
2019-03-30T12:16:48.918Z,99960.56
2019-03-30T12:19:16.383Z,99967.23
2019-03-30T12:21:43.813Z,99954.63
2019-03-30T12:24:11.280Z,99951.44
2019-03-30T12:26:38.730Z,99948.39
2019-03-30T12:29:06.188Z,99951.41
2019-03-30T12:31:33.650Z,99950.16
2019-03-30T12:34:01.111Z,99953.93
2019-03-30T12:36:28.531Z,99942.92
2019-03-30T12:38:55.968Z,99938.19
2019-03-30T12:41:23.997Z,99943.55
2019-03-30T12:43:51.439Z,99928.09
2019-03-30T12:46:18.907Z,99932.80
2019-03-30T12:48:46.366Z,99932.37
2019-03-30T12:51:13.845Z,99930.28
2019-03-30T12:53:50.259Z,99926.84
2019-03-30T12:56:09.066Z,99926.94
2019-03-30T12:58:37.078Z,99923.77
2019-03-30T13:01:04.601Z,99927.09
2019-03-30T13:03:32.043Z,99912.39
2019-03-30T13:05:59.512Z,99918.94
2019-03-30T13:08:26.969Z,99919.06
2019-03-30T13:10:54.432Z,99914.12
2019-03-30T13:13:21.980Z,99920.46
2019-03-30T13:15:49.496Z,99915.25
2019-03-30T13:18:18.391Z,99915.25
2019-03-30T13:20:46.886Z,99911.41
2019-03-30T13:23:14.703Z,99907.72
2019-03-30T13:25:43.305Z,99912.78
2019-03-30T13:28:11.623Z,99911.46
2019-03-30T13:30:40.265Z,99917.37
2019-03-30T13:33:08.554Z,99911.42
2019-03-30T13:35:36.818Z,99907.86
2019-03-30T13:38:05.385Z,99905.09
2019-03-30T13:40:34.003Z,99902.00
2019-03-30T13:43:02.283Z,99892.54
2019-03-30T13:45:30.925Z,99900.88
2019-03-30T13:47:59.386Z,99901.48
2019-03-30T13:50:30.821Z,99898.45
2019-03-30T13:52:56.095Z,99894.02
2019-03-30T13:55:24.471Z,99895.58
2019-03-30T13:57:52.656Z,99891.96
2019-03-30T14:00:20.500Z,99893.93
2019-03-30T14:02:48.726Z,99891.72
2019-03-30T14:05:16.355Z,99886.37
2019-03-30T14:07:43.807Z,99885.97
2019-03-30T14:10:11.267Z,99883.25
2019-03-30T14:12:38.703Z,99885.57
2019-03-30T14:15:09.161Z,99884.75
2019-03-30T14:17:34.012Z,99880.41
2019-03-30T14:20:02.866Z,99889.17
2019-03-30T14:22:30.406Z,99882.83
2019-03-30T14:24:57.855Z,99878.74
2019-03-30T14:27:25.294Z,99878.63
2019-03-30T14:29:54.518Z,99889.52
2019-03-30T14:32:20.923Z,99877.49
2019-03-30T14:34:48.403Z,99872.06
2019-03-30T14:37:16.022Z,99885.42
2019-03-30T14:39:43.641Z,99872.74
2019-03-30T14:42:11.192Z,99866.44
2019-03-30T14:44:38.805Z,99872.05
2019-03-30T14:47:06.658Z,99865.31
2019-03-30T14:49:34.137Z,99873.84
2019-03-30T14:52:01.597Z,99871.44
2019-03-30T14:54:29.130Z,99868.59
2019-03-30T14:56:57.145Z,99859.47
2019-03-30T14:59:24.593Z,99855.91
2019-03-30T15:01:52.085Z,99852.64
2019-03-30T15:04:19.592Z,99859.10
2019-03-30T15:06:47.036Z,99859.36
2019-03-30T15:09:14.494Z,99858.06
2019-03-30T15:11:41.963Z,99861.83
2019-03-30T15:14:09.420Z,99862.22
2019-03-30T15:16:36.943Z,99864.57
2019-03-30T15:19:04.553Z,99860.72
2019-03-30T15:21:32.106Z,99863.66
2019-03-30T15:23:59.556Z,99859.86
2019-03-30T15:26:28.087Z,99856.14
2019-03-30T15:28:55.524Z,99855.92
2019-03-30T15:31:23.004Z,99858.08
2019-03-30T15:33:53.191Z,99853.12
2019-03-30T15:36:17.941Z,99863.89
2019-03-30T15:38:45.381Z,99856.53
2019-03-30T15:41:12.855Z,99860.48
2019-03-30T15:43:40.291Z,99855.86
2019-03-30T15:46:07.822Z,99855.62
2019-03-30T15:48:35.267Z,99855.95
2019-03-30T15:51:02.727Z,99851.88
2019-03-30T15:56:03.886Z,99841.05
2019-03-30T15:58:31.318Z,99848.39
2019-03-30T16:00:58.817Z,99849.09
2019-03-30T16:03:26.285Z,99852.65
2019-03-30T16:05:53.713Z,99846.55
2019-03-30T16:08:21.169Z,99843.13
2019-03-30T16:10:52.056Z,99840.34
2019-03-30T16:13:16.057Z,99841.05
2019-03-30T16:15:44.631Z,99842.95
2019-03-30T16:18:10.988Z,99848.56
2019-03-30T16:20:38.424Z,99848.33
2019-03-30T16:23:06.477Z,99848.22
2019-03-30T16:25:33.934Z,99840.11
2019-03-30T16:28:01.411Z,99851.45
2019-03-30T16:30:29.369Z,99849.90
2019-03-30T16:32:56.811Z,99853.66
2019-03-30T16:35:24.252Z,99853.17
2019-03-30T16:37:51.675Z,99852.98
2019-03-30T16:40:19.169Z,99847.73
2019-03-30T16:42:46.588Z,99849.25
2019-03-30T16:45:14.013Z,99852.19
2019-03-30T16:47:41.471Z,99852.01
2019-03-30T16:50:08.908Z,99850.48
2019-03-30T16:52:36.361Z,99851.06
2019-03-30T16:55:03.860Z,99846.92
2019-03-30T16:57:42.597Z,99841.94
2019-03-30T16:59:58.744Z,99843.46
2019-03-30T17:02:26.222Z,99849.95
2019-03-30T17:04:53.699Z,99846.77
2019-03-30T17:07:21.652Z,99843.13
2019-03-30T17:09:49.132Z,99845.67
2019-03-30T17:12:16.542Z,99849.13
2019-03-30T17:14:43.975Z,99846.01
2019-03-30T17:17:11.435Z,99843.66
2019-03-30T17:19:39.124Z,99842.59
2019-03-30T17:22:06.587Z,99847.54
2019-03-30T17:24:34.033Z,99845.61
2019-03-30T17:27:01.490Z,99844.47
2019-03-30T17:29:28.981Z,99851.54
2019-03-30T17:31:56.408Z,99851.92
2019-03-30T17:34:23.861Z,99842.90
2019-03-30T17:36:51.337Z,99844.14
2019-03-30T17:39:18.832Z,99847.63
2019-03-30T17:41:46.264Z,99848.69
2019-03-30T17:44:13.715Z,99846.89
2019-03-30T17:46:41.163Z,99858.03
2019-03-30T17:49:09.164Z,99848.02
2019-03-30T17:51:36.689Z,99852.75
2019-03-30T17:54:04.140Z,99845.20
2019-03-30T17:56:31.603Z,99850.58
2019-03-30T17:58:59.521Z,99850.97
2019-03-30T18:01:26.944Z,99852.13
2019-03-30T18:03:54.354Z,99857.02
2019-03-30T18:06:22.596Z,99855.73
2019-03-30T18:08:50.047Z,99860.42
2019-03-30T18:11:17.493Z,99862.33
2019-03-30T18:13:44.931Z,99868.77
2019-03-30T18:16:12.394Z,99861.43
2019-03-30T18:18:39.848Z,99866.53
2019-03-30T18:21:07.323Z,99865.38
2019-03-30T18:23:34.731Z,99863.08
2019-03-30T18:26:02.167Z,99868.17
2019-03-30T18:28:29.586Z,99873.09
2019-03-30T18:30:57.040Z,99879.86
2019-03-30T18:33:24.495Z,99878.43
2019-03-30T18:35:51.924Z,99884.10
2019-03-30T18:38:19.385Z,99889.63
2019-03-30T18:40:46.803Z,99891.14
2019-03-30T18:43:14.277Z,99892.67
2019-03-30T18:45:42.685Z,99897.13
2019-03-30T18:48:10.892Z,99899.38
2019-03-30T18:50:38.377Z,99896.61
2019-03-30T18:53:06.551Z,99901.54
2019-03-30T18:55:33.979Z,99906.09
2019-03-30T18:58:02.342Z,99904.53
2019-03-30T19:00:29.817Z,99905.39
2019-03-30T19:02:57.263Z,99905.86
2019-03-30T19:05:24.675Z,99911.39
2019-03-30T19:07:52.926Z,99913.82
2019-03-30T19:10:20.370Z,99910.85
2019-03-30T19:12:47.825Z,99910.89
2019-03-30T19:15:17.197Z,99908.94
2019-03-30T19:17:44.633Z,99906.39
2019-03-30T19:20:12.103Z,99905.30
2019-03-30T19:22:39.573Z,99908.89
2019-03-30T19:25:07.031Z,99899.69
2019-03-30T19:27:34.471Z,99908.39
2019-03-30T19:30:02.964Z,99907.91
2019-03-30T19:32:30.438Z,99913.06
2019-03-30T19:34:57.885Z,99910.78
2019-03-30T19:37:25.334Z,99909.91
2019-03-30T19:39:53.751Z,99908.87
2019-03-30T19:42:21.191Z,99918.05
2019-03-30T19:44:48.619Z,99919.77
2019-03-30T19:47:16.058Z,99924.23
2019-03-30T19:49:43.524Z,99924.57
2019-03-30T19:52:12.605Z,99925.20
2019-03-30T19:54:40.187Z,99929.94
2019-03-30T19:57:07.635Z,99923.72
2019-03-30T19:59:35.109Z,99921.39
2019-03-30T20:02:02.541Z,99925.59
2019-03-30T20:04:30.018Z,99928.77
2019-03-30T20:06:57.446Z,99925.40
2019-03-30T20:09:24.907Z,99925.78
2019-03-30T20:11:52.361Z,99927.19
2019-03-30T20:14:19.803Z,99931.50
2019-03-30T20:16:47.263Z,99926.63
2019-03-30T20:19:14.734Z,99932.08
2019-03-30T20:21:42.182Z,99933.74
2019-03-30T20:24:09.656Z,99932.20
2019-03-30T20:26:37.108Z,99924.06
2019-03-30T20:29:05.183Z,99929.07
2019-03-30T20:31:32.634Z,99931.19
2019-03-30T20:34:00.073Z,99923.50
2019-03-30T20:36:27.567Z,99923.13
2019-03-30T20:38:54.987Z,99922.16
2019-03-30T20:41:22.478Z,99922.67
2019-03-30T20:43:49.911Z,99922.85
2019-03-30T20:46:17.814Z,99925.41
2019-03-30T20:48:46.242Z,99923.25
2019-03-30T20:51:13.704Z,99916.72
2019-03-30T20:53:41.158Z,99913.22
2019-03-30T20:56:08.653Z,99909.03
2019-03-30T20:58:36.131Z,99914.66
2019-03-30T21:01:04.615Z,99916.25
2019-03-30T21:03:32.058Z,99921.62
2019-03-30T21:05:59.483Z,99923.31
2019-03-30T21:08:26.930Z,99927.84
2019-03-30T21:10:56.496Z,99927.47
2019-03-30T21:13:24.007Z,99928.72
2019-03-30T21:15:51.444Z,99941.12
2019-03-30T21:18:18.906Z,99933.52
2019-03-30T21:20:46.335Z,99931.98
2019-03-30T21:23:13.791Z,99935.27
2019-03-30T21:25:41.422Z,99934.83
2019-03-30T21:28:08.866Z,99933.92
2019-03-30T21:30:36.317Z,99933.28
2019-03-30T21:33:03.799Z,99939.15
2019-03-30T21:35:31.245Z,99943.22
2019-03-30T21:37:58.855Z,99942.18
2019-03-30T21:40:26.151Z,99933.66
2019-03-30T21:42:53.567Z,99932.61
2019-03-30T21:45:21.010Z,99933.32
2019-03-30T21:47:48.581Z,99931.67
2019-03-30T21:50:16.047Z,99931.56
2019-03-30T21:52:43.479Z,99936.89
2019-03-30T21:55:10.911Z,99937.41
2019-03-30T21:57:38.395Z,99930.28
2019-03-30T22:00:10.591Z,99930.86
2019-03-30T22:02:33.299Z,99930.13
2019-03-30T22:05:00.765Z,99933.39
2019-03-30T22:07:28.238Z,99937.03
2019-03-30T22:09:55.668Z,99933.61
2019-03-30T22:12:23.148Z,99940.94
2019-03-30T22:14:50.833Z,99938.81
2019-03-30T22:17:18.261Z,99933.19
2019-03-30T22:19:45.737Z,99931.05
2019-03-30T22:22:13.185Z,99929.58
2019-03-30T22:24:40.611Z,99934.94
2019-03-30T22:27:08.101Z,99932.61
2019-03-30T22:29:36.186Z,99929.88
2019-03-30T22:32:03.675Z,99924.66
2019-03-30T22:34:31.748Z,99933.74
2019-03-30T22:36:59.222Z,99926.73
2019-03-30T22:39:26.670Z,99928.73
2019-03-30T22:41:55.214Z,99932.87
2019-03-30T22:44:22.773Z,99929.83
2019-03-30T22:46:50.229Z,99934.09
2019-03-30T22:49:17.672Z,99928.32
2019-03-30T22:51:45.102Z,99931.41
2019-03-30T22:54:12.576Z,99928.88
2019-03-30T22:56:40.048Z,99936.71
2019-03-30T22:59:07.709Z,99932.58
2019-03-30T23:01:35.165Z,99929.40
2019-03-30T23:04:02.617Z,99932.27
2019-03-30T23:06:30.062Z,99935.28
2019-03-30T23:08:57.523Z,99926.20
2019-03-30T23:11:24.958Z,99929.11
2019-03-30T23:13:52.445Z,99935.90
2019-03-30T23:16:19.893Z,99931.99
2019-03-30T23:18:47.358Z,99927.69
2019-03-30T23:21:14.813Z,99926.97
2019-03-30T23:23:42.246Z,99923.39
2019-03-30T23:26:09.709Z,99927.78
2019-03-30T23:28:37.378Z,99928.83
2019-03-30T23:31:04.840Z,99924.41
2019-03-30T23:33:32.305Z,99922.94
2019-03-30T23:35:59.743Z,99918.02
2019-03-30T23:38:27.178Z,99919.09
2019-03-30T23:40:54.627Z,99909.58
2019-03-30T23:43:22.079Z,99909.13
2019-03-30T23:45:50.554Z,99912.46
2019-03-30T23:48:18.024Z,99912.27
2019-03-30T23:50:45.786Z,99919.25
2019-03-30T23:53:13.246Z,99915.53
2019-03-30T23:55:40.675Z,99923.14
2019-03-30T23:58:08.130Z,99922.01
